sensor_id;sensor_type;location;lat;lon;timestamp;P1;durP1;ratioP1;P2;durP2;ratioP2
50757;SDS011;36732;47.980;11.652;2023-05-07T00:01:42;8.07;;;3.38;;
50757;SDS011;36732;47.980;11.652;2023-05-07T00:04:08;3.33;;;2.83;;
50757;SDS011;36732;47.980;11.652;2023-05-07T00:06:34;4.07;;;2.60;;
50757;SDS011;36732;47.980;11.652;2023-05-07T00:09:00;5.68;;;2.53;;
50757;SDS011;36732;47.980;11.652;2023-05-07T00:11:27;5.47;;;1.98;;
50757;SDS011;36732;47.980;11.652;2023-05-07T00:13:53;2.45;;;2.20;;
50757;SDS011;36732;47.980;11.652;2023-05-07T00:16:19;3.10;;;2.22;;
50757;SDS011;36732;47.980;11.652;2023-05-07T00:18:45;3.33;;;2.17;;
50757;SDS011;36732;47.980;11.652;2023-05-07T00:21:11;4.25;;;2.40;;
50757;SDS011;36732;47.980;11.652;2023-05-07T00:23:36;2.50;;;2.30;;
50757;SDS011;36732;47.980;11.652;2023-05-07T00:26:03;3.28;;;2.15;;
50757;SDS011;36732;47.980;11.652;2023-05-07T00:28:29;4.25;;;2.55;;
50757;SDS011;36732;47.980;11.652;2023-05-07T00:30:55;3.00;;;2.30;;
50757;SDS011;36732;47.980;11.652;2023-05-07T00:33:21;2.67;;;2.45;;
50757;SDS011;36732;47.980;11.652;2023-05-07T00:35:47;7.22;;;2.80;;
50757;SDS011;36732;47.980;11.652;2023-05-07T00:38:13;2.50;;;2.30;;
50757;SDS011;36732;47.980;11.652;2023-05-07T00:40:39;3.47;;;2.40;;
50757;SDS011;36732;47.980;11.652;2023-05-07T00:43:05;4.35;;;2.20;;
50757;SDS011;36732;47.980;11.652;2023-05-07T00:45:31;3.10;;;2.40;;
50757;SDS011;36732;47.980;11.652;2023-05-07T00:47:59;2.47;;;2.22;;
50757;SDS011;36732;47.980;11.652;2023-05-07T00:50:26;4.20;;;2.13;;
50757;SDS011;36732;47.980;11.652;2023-05-07T00:52:53;2.42;;;2.05;;
50757;SDS011;36732;47.980;11.652;2023-05-07T00:55:19;2.45;;;1.95;;
50757;SDS011;36732;47.980;11.652;2023-05-07T00:57:47;2.28;;;2.08;;
50757;SDS011;36732;47.980;11.652;2023-05-07T01:00:13;2.20;;;1.75;;
50757;SDS011;36732;47.980;11.652;2023-05-07T01:02:39;3.85;;;2.20;;
50757;SDS011;36732;47.980;11.652;2023-05-07T01:05:05;2.30;;;2.00;;
50757;SDS011;36732;47.980;11.652;2023-05-07T01:07:38;3.07;;;2.07;;
50757;SDS011;36732;47.980;11.652;2023-05-07T01:10:06;2.20;;;2.00;;
50757;SDS011;36732;47.980;11.652;2023-05-07T01:12:33;3.22;;;2.10;;
50757;SDS011;36732;47.980;11.652;2023-05-07T01:15:01;2.92;;;1.63;;
50757;SDS011;36732;47.980;11.652;2023-05-07T01:17:28;3.88;;;2.30;;
50757;SDS011;36732;47.980;11.652;2023-05-07T01:19:54;3.13;;;2.28;;
50757;SDS011;36732;47.980;11.652;2023-05-07T01:22:32;1.90;;;1.80;;
50757;SDS011;36732;47.980;11.652;2023-05-07T01:25:01;4.18;;;2.20;;
50757;SDS011;36732;47.980;11.652;2023-05-07T01:27:29;2.80;;;1.95;;
50757;SDS011;36732;47.980;11.652;2023-05-07T01:29:54;2.47;;;1.77;;
50757;SDS011;36732;47.980;11.652;2023-05-07T01:32:23;1.95;;;1.70;;
50757;SDS011;36732;47.980;11.652;2023-05-07T01:35:15;2.38;;;1.70;;
50757;SDS011;36732;47.980;11.652;2023-05-07T01:37:48;1.63;;;1.52;;
50757;SDS011;36732;47.980;11.652;2023-05-07T01:40:15;3.42;;;1.90;;
50757;SDS011;36732;47.980;11.652;2023-05-07T01:42:41;2.03;;;1.80;;
50757;SDS011;36732;47.980;11.652;2023-05-07T01:45:08;1.98;;;1.75;;
50757;SDS011;36732;47.980;11.652;2023-05-07T01:47:35;4.50;;;1.75;;
50757;SDS011;36732;47.980;11.652;2023-05-07T01:50:03;1.63;;;1.52;;
50757;SDS011;36732;47.980;11.652;2023-05-07T01:52:30;2.47;;;1.70;;
50757;SDS011;36732;47.980;11.652;2023-05-07T01:54:56;2.03;;;1.65;;
50757;SDS011;36732;47.980;11.652;2023-05-07T01:57:22;1.50;;;1.40;;
50757;SDS011;36732;47.980;11.652;2023-05-07T01:59:48;1.70;;;1.60;;
50757;SDS011;36732;47.980;11.652;2023-05-07T02:02:13;1.83;;;1.70;;
50757;SDS011;36732;47.980;11.652;2023-05-07T02:04:39;7.88;;;1.77;;
50757;SDS011;36732;47.980;11.652;2023-05-07T02:07:05;3.10;;;1.77;;
50757;SDS011;36732;47.980;11.652;2023-05-07T02:09:30;1.92;;;1.73;;
50757;SDS011;36732;47.980;11.652;2023-05-07T02:11:56;2.45;;;1.92;;
50757;SDS011;36732;47.980;11.652;2023-05-07T02:14:22;4.93;;;1.45;;
50757;SDS011;36732;47.980;11.652;2023-05-07T02:16:47;2.08;;;1.60;;
50757;SDS011;36732;47.980;11.652;2023-05-07T02:19:13;2.08;;;1.60;;
50757;SDS011;36732;47.980;11.652;2023-05-07T02:21:39;2.97;;;1.52;;
50757;SDS011;36732;47.980;11.652;2023-05-07T02:24:05;3.38;;;1.65;;
50757;SDS011;36732;47.980;11.652;2023-05-07T02:26:30;1.67;;;1.58;;
50757;SDS011;36732;47.980;11.652;2023-05-07T02:28:56;3.72;;;1.80;;
50757;SDS011;36732;47.980;11.652;2023-05-07T02:31:22;1.83;;;1.50;;
50757;SDS011;36732;47.980;11.652;2023-05-07T02:33:48;2.72;;;1.80;;
50757;SDS011;36732;47.980;11.652;2023-05-07T02:36:13;2.35;;;1.42;;
50757;SDS011;36732;47.980;11.652;2023-05-07T02:38:39;2.03;;;1.70;;
50757;SDS011;36732;47.980;11.652;2023-05-07T02:41:05;2.20;;;1.70;;
50757;SDS011;36732;47.980;11.652;2023-05-07T02:43:31;5.55;;;1.80;;
50757;SDS011;36732;47.980;11.652;2023-05-07T02:46:14;2.85;;;1.80;;
50757;SDS011;36732;47.980;11.652;2023-05-07T02:48:40;1.65;;;1.40;;
50757;SDS011;36732;47.980;11.652;2023-05-07T02:51:06;2.25;;;1.70;;
50757;SDS011;36732;47.980;11.652;2023-05-07T02:53:32;3.30;;;2.00;;
50757;SDS011;36732;47.980;11.652;2023-05-07T02:55:58;3.85;;;2.47;;
50757;SDS011;36732;47.980;11.652;2023-05-07T02:58:25;2.83;;;2.20;;
50757;SDS011;36732;47.980;11.652;2023-05-07T03:00:51;2.95;;;2.00;;
50757;SDS011;36732;47.980;11.652;2023-05-07T03:03:17;4.07;;;1.70;;
50757;SDS011;36732;47.980;11.652;2023-05-07T03:05:43;1.92;;;1.83;;
50757;SDS011;36732;47.980;11.652;2023-05-07T03:08:09;6.95;;;2.33;;
50757;SDS011;36732;47.980;11.652;2023-05-07T03:10:35;4.20;;;2.22;;
50757;SDS011;36732;47.980;11.652;2023-05-07T03:13:02;2.47;;;2.03;;
50757;SDS011;36732;47.980;11.652;2023-05-07T03:15:28;3.70;;;2.13;;
50757;SDS011;36732;47.980;11.652;2023-05-07T03:17:53;2.20;;;2.00;;
50757;SDS011;36732;47.980;11.652;2023-05-07T03:20:19;3.65;;;2.20;;
50757;SDS011;36732;47.980;11.652;2023-05-07T03:22:45;3.40;;;2.63;;
50757;SDS011;36732;47.980;11.652;2023-05-07T03:25:11;3.38;;;2.05;;
50757;SDS011;36732;47.980;11.652;2023-05-07T03:27:37;2.90;;;2.00;;
50757;SDS011;36732;47.980;11.652;2023-05-07T03:30:03;2.35;;;1.98;;
50757;SDS011;36732;47.980;11.652;2023-05-07T03:32:29;2.80;;;1.70;;
50757;SDS011;36732;47.980;11.652;2023-05-07T03:34:55;1.77;;;1.65;;
50757;SDS011;36732;47.980;11.652;2023-05-07T03:37:21;1.80;;;1.48;;
50757;SDS011;36732;47.980;11.652;2023-05-07T03:39:46;1.92;;;1.80;;
50757;SDS011;36732;47.980;11.652;2023-05-07T03:42:12;2.35;;;1.60;;
50757;SDS011;36732;47.980;11.652;2023-05-07T03:44:38;1.88;;;1.73;;
50757;SDS011;36732;47.980;11.652;2023-05-07T03:47:04;2.90;;;1.65;;
50757;SDS011;36732;47.980;11.652;2023-05-07T03:49:30;4.93;;;1.63;;
50757;SDS011;36732;47.980;11.652;2023-05-07T03:51:55;2.03;;;1.80;;
50757;SDS011;36732;47.980;11.652;2023-05-07T03:54:21;2.78;;;1.80;;
50757;SDS011;36732;47.980;11.652;2023-05-07T03:56:47;4.03;;;1.63;;
50757;SDS011;36732;47.980;11.652;2023-05-07T03:59:13;2.15;;;1.90;;
50757;SDS011;36732;47.980;11.652;2023-05-07T04:01:38;1.73;;;1.52;;
50757;SDS011;36732;47.980;11.652;2023-05-07T04:04:04;3.70;;;1.70;;
50757;SDS011;36732;47.980;11.652;2023-05-07T04:06:30;3.00;;;1.90;;
50757;SDS011;36732;47.980;11.652;2023-05-07T04:08:56;2.75;;;2.08;;
50757;SDS011;36732;47.980;11.652;2023-05-07T04:11:22;3.10;;;1.90;;
50757;SDS011;36732;47.980;11.652;2023-05-07T04:13:48;2.83;;;1.67;;
50757;SDS011;36732;47.980;11.652;2023-05-07T04:16:14;2.67;;;2.03;;
50757;SDS011;36732;47.980;11.652;2023-05-07T04:18:39;2.58;;;1.73;;
50757;SDS011;36732;47.980;11.652;2023-05-07T04:21:06;5.07;;;2.63;;
50757;SDS011;36732;47.980;11.652;2023-05-07T04:23:43;2.42;;;1.80;;
50757;SDS011;36732;47.980;11.652;2023-05-07T04:26:09;2.15;;;1.95;;
50757;SDS011;36732;47.980;11.652;2023-05-07T04:28:35;1.92;;;1.50;;
50757;SDS011;36732;47.980;11.652;2023-05-07T04:31:01;2.47;;;1.90;;
50757;SDS011;36732;47.980;11.652;2023-05-07T04:33:27;2.13;;;1.42;;
50757;SDS011;36732;47.980;11.652;2023-05-07T04:35:52;2.05;;;1.80;;
50757;SDS011;36732;47.980;11.652;2023-05-07T04:38:18;2.97;;;1.77;;
50757;SDS011;36732;47.980;11.652;2023-05-07T04:40:44;2.42;;;2.20;;
50757;SDS011;36732;47.980;11.652;2023-05-07T04:43:11;2.53;;;2.15;;
50757;SDS011;36732;47.980;11.652;2023-05-07T04:45:36;3.45;;;2.17;;
50757;SDS011;36732;47.980;11.652;2023-05-07T04:48:04;3.75;;;2.55;;
50757;SDS011;36732;47.980;11.652;2023-05-07T04:50:30;2.88;;;2.47;;
50757;SDS011;36732;47.980;11.652;2023-05-07T04:52:56;2.30;;;2.08;;
50757;SDS011;36732;47.980;11.652;2023-05-07T04:55:22;2.45;;;1.73;;
50757;SDS011;36732;47.980;11.652;2023-05-07T04:57:47;2.05;;;1.50;;
50757;SDS011;36732;47.980;11.652;2023-05-07T05:00:13;1.88;;;1.52;;
50757;SDS011;36732;47.980;11.652;2023-05-07T05:02:40;3.80;;;1.80;;
50757;SDS011;36732;47.980;11.652;2023-05-07T05:05:06;1.73;;;1.63;;
50757;SDS011;36732;47.980;11.652;2023-05-07T05:07:32;2.70;;;1.80;;
50757;SDS011;36732;47.980;11.652;2023-05-07T05:09:58;2.10;;;1.90;;
50757;SDS011;36732;47.980;11.652;2023-05-07T05:12:24;4.00;;;1.92;;
50757;SDS011;36732;47.980;11.652;2023-05-07T05:14:50;3.83;;;2.20;;
50757;SDS011;36732;47.980;11.652;2023-05-07T05:17:15;4.15;;;2.10;;
50757;SDS011;36732;47.980;11.652;2023-05-07T05:19:41;2.13;;;1.92;;
50757;SDS011;36732;47.980;11.652;2023-05-07T05:22:07;2.10;;;2.00;;
50757;SDS011;36732;47.980;11.652;2023-05-07T05:24:32;2.05;;;1.70;;
50757;SDS011;36732;47.980;11.652;2023-05-07T05:26:58;2.67;;;2.00;;
50757;SDS011;36732;47.980;11.652;2023-05-07T05:29:27;2.28;;;1.90;;
50757;SDS011;36732;47.980;11.652;2023-05-07T05:31:52;2.08;;;1.85;;
50757;SDS011;36732;47.980;11.652;2023-05-07T05:34:18;2.10;;;1.90;;
50757;SDS011;36732;47.980;11.652;2023-05-07T05:36:47;3.70;;;2.05;;
50757;SDS011;36732;47.980;11.652;2023-05-07T05:39:12;3.55;;;1.85;;
50757;SDS011;36732;47.980;11.652;2023-05-07T05:41:39;2.88;;;1.70;;
50757;SDS011;36732;47.980;11.652;2023-05-07T05:44:05;2.08;;;1.70;;
50757;SDS011;36732;47.980;11.652;2023-05-07T05:46:30;1.90;;;1.60;;
50757;SDS011;36732;47.980;11.652;2023-05-07T05:48:56;2.35;;;1.60;;
50757;SDS011;36732;47.980;11.652;2023-05-07T05:51:22;2.05;;;1.52;;
50757;SDS011;36732;47.980;11.652;2023-05-07T05:53:48;2.03;;;1.40;;
50757;SDS011;36732;47.980;11.652;2023-05-07T05:56:14;1.75;;;1.60;;
50757;SDS011;36732;47.980;11.652;2023-05-07T05:58:40;3.40;;;1.70;;
50757;SDS011;36732;47.980;11.652;2023-05-07T06:01:06;2.00;;;1.52;;
50757;SDS011;36732;47.980;11.652;2023-05-07T06:03:32;1.45;;;1.35;;
50757;SDS011;36732;47.980;11.652;2023-05-07T06:05:58;6.00;;;2.03;;
50757;SDS011;36732;47.980;11.652;2023-05-07T06:08:25;1.80;;;1.70;;
50757;SDS011;36732;47.980;11.652;2023-05-07T06:10:54;2.00;;;1.80;;
50757;SDS011;36732;47.980;11.652;2023-05-07T06:13:20;3.15;;;1.90;;
50757;SDS011;36732;47.980;11.652;2023-05-07T06:15:45;1.88;;;1.73;;
50757;SDS011;36732;47.980;11.652;2023-05-07T06:18:11;2.97;;;1.75;;
50757;SDS011;36732;47.980;11.652;2023-05-07T06:20:37;4.53;;;1.80;;
50757;SDS011;36732;47.980;11.652;2023-05-07T06:23:03;3.00;;;1.90;;
50757;SDS011;36732;47.980;11.652;2023-05-07T06:25:28;1.95;;;1.80;;
50757;SDS011;36732;47.980;11.652;2023-05-07T06:27:54;4.25;;;2.00;;
50757;SDS011;36732;47.980;11.652;2023-05-07T06:30:20;2.72;;;1.90;;
50757;SDS011;36732;47.980;11.652;2023-05-07T06:32:46;5.93;;;1.92;;
50757;SDS011;36732;47.980;11.652;2023-05-07T06:35:11;1.77;;;1.67;;
50757;SDS011;36732;47.980;11.652;2023-05-07T06:37:38;2.13;;;1.88;;
50757;SDS011;36732;47.980;11.652;2023-05-07T06:40:05;3.30;;;1.90;;
50757;SDS011;36732;47.980;11.652;2023-05-07T06:42:32;3.58;;;2.05;;
50757;SDS011;36732;47.980;11.652;2023-05-07T06:44:57;2.38;;;1.88;;
50757;SDS011;36732;47.980;11.652;2023-05-07T06:47:23;1.80;;;1.70;;
50757;SDS011;36732;47.980;11.652;2023-05-07T06:49:49;2.70;;;1.92;;
50757;SDS011;36732;47.980;11.652;2023-05-07T06:52:15;4.35;;;2.20;;
50757;SDS011;36732;47.980;11.652;2023-05-07T06:54:43;3.35;;;1.83;;
50757;SDS011;36732;47.980;11.652;2023-05-07T06:57:09;3.03;;;2.33;;
50757;SDS011;36732;47.980;11.652;2023-05-07T06:59:35;3.03;;;1.52;;
50757;SDS011;36732;47.980;11.652;2023-05-07T07:02:01;3.53;;;2.05;;
50757;SDS011;36732;47.980;11.652;2023-05-07T07:04:26;1.90;;;1.70;;
50757;SDS011;36732;47.980;11.652;2023-05-07T07:06:53;3.55;;;2.35;;
50757;SDS011;36732;47.980;11.652;2023-05-07T07:09:19;2.88;;;1.98;;
50757;SDS011;36732;47.980;11.652;2023-05-07T07:11:45;1.95;;;1.75;;
50757;SDS011;36732;47.980;11.652;2023-05-07T07:14:11;2.15;;;1.95;;
50757;SDS011;36732;47.980;11.652;2023-05-07T07:16:37;2.25;;;1.60;;
50757;SDS011;36732;47.980;11.652;2023-05-07T07:19:02;2.63;;;2.05;;
50757;SDS011;36732;47.980;11.652;2023-05-07T07:21:28;1.98;;;1.88;;
50757;SDS011;36732;47.980;11.652;2023-05-07T07:23:54;5.03;;;2.08;;
50757;SDS011;36732;47.980;11.652;2023-05-07T07:26:20;2.90;;;1.77;;
50757;SDS011;36732;47.980;11.652;2023-05-07T07:28:46;2.08;;;1.88;;
50757;SDS011;36732;47.980;11.652;2023-05-07T07:31:12;3.78;;;1.90;;
50757;SDS011;36732;47.980;11.652;2023-05-07T07:33:38;2.28;;;1.80;;
50757;SDS011;36732;47.980;11.652;2023-05-07T07:36:05;2.17;;;1.75;;
50757;SDS011;36732;47.980;11.652;2023-05-07T07:38:31;5.72;;;1.90;;
50757;SDS011;36732;47.980;11.652;2023-05-07T07:40:58;2.80;;;1.75;;
50757;SDS011;36732;47.980;11.652;2023-05-07T07:43:23;2.50;;;1.80;;
50757;SDS011;36732;47.980;11.652;2023-05-07T07:45:49;1.92;;;1.67;;
50757;SDS011;36732;47.980;11.652;2023-05-07T07:48:15;3.67;;;2.03;;
50757;SDS011;36732;47.980;11.652;2023-05-07T07:50:41;2.80;;;2.00;;
50757;SDS011;36732;47.980;11.652;2023-05-07T07:53:06;2.42;;;2.10;;
50757;SDS011;36732;47.980;11.652;2023-05-07T07:55:32;2.15;;;1.85;;
50757;SDS011;36732;47.980;11.652;2023-05-07T07:58:03;2.45;;;1.95;;
50757;SDS011;36732;47.980;11.652;2023-05-07T08:00:29;3.05;;;2.10;;
50757;SDS011;36732;47.980;11.652;2023-05-07T08:02:54;2.33;;;2.00;;
50757;SDS011;36732;47.980;11.652;2023-05-07T08:05:20;4.97;;;2.45;;
50757;SDS011;36732;47.980;11.652;2023-05-07T08:07:46;2.90;;;1.95;;
50757;SDS011;36732;47.980;11.652;2023-05-07T08:10:16;1.90;;;1.80;;
50757;SDS011;36732;47.980;11.652;2023-05-07T08:12:46;2.30;;;2.10;;
50757;SDS011;36732;47.980;11.652;2023-05-07T08:15:15;3.60;;;1.95;;
50757;SDS011;36732;47.980;11.652;2023-05-07T08:17:41;4.93;;;2.10;;
50757;SDS011;36732;47.980;11.652;2023-05-07T08:20:08;2.92;;;1.95;;
50757;SDS011;36732;47.980;11.652;2023-05-07T08:22:35;2.25;;;1.83;;
50757;SDS011;36732;47.980;11.652;2023-05-07T08:25:01;2.95;;;2.00;;
50757;SDS011;36732;47.980;11.652;2023-05-07T08:27:27;3.17;;;1.98;;
50757;SDS011;36732;47.980;11.652;2023-05-07T08:29:53;2.00;;;1.80;;
50757;SDS011;36732;47.980;11.652;2023-05-07T08:32:19;1.90;;;1.77;;
50757;SDS011;36732;47.980;11.652;2023-05-07T08:34:45;3.15;;;1.98;;
50757;SDS011;36732;47.980;11.652;2023-05-07T08:37:12;3.22;;;1.90;;
50757;SDS011;36732;47.980;11.652;2023-05-07T08:39:38;3.83;;;1.77;;
50757;SDS011;36732;47.980;11.652;2023-05-07T08:42:04;6.07;;;1.88;;
50757;SDS011;36732;47.980;11.652;2023-05-07T08:44:33;2.70;;;1.48;;
50757;SDS011;36732;47.980;11.652;2023-05-07T08:47:02;4.05;;;1.52;;
50757;SDS011;36732;47.980;11.652;2023-05-07T08:49:28;2.65;;;1.95;;
50757;SDS011;36732;47.980;11.652;2023-05-07T08:51:54;1.83;;;1.40;;
50757;SDS011;36732;47.980;11.652;2023-05-07T08:54:20;3.08;;;1.85;;
50757;SDS011;36732;47.980;11.652;2023-05-07T08:56:47;4.80;;;2.30;;
50757;SDS011;36732;47.980;11.652;2023-05-07T08:59:13;2.42;;;1.48;;
50757;SDS011;36732;47.980;11.652;2023-05-07T09:01:39;2.47;;;1.70;;
50757;SDS011;36732;47.980;11.652;2023-05-07T09:04:05;1.60;;;1.50;;
50757;SDS011;36732;47.980;11.652;2023-05-07T09:06:32;4.10;;;1.70;;
50757;SDS011;36732;47.980;11.652;2023-05-07T09:08:58;2.00;;;1.77;;
50757;SDS011;36732;47.980;11.652;2023-05-07T09:11:26;3.55;;;1.92;;
50757;SDS011;36732;47.980;11.652;2023-05-07T09:13:55;1.63;;;1.52;;
50757;SDS011;36732;47.980;11.652;2023-05-07T09:16:28;2.40;;;1.88;;
50757;SDS011;36732;47.980;11.652;2023-05-07T09:18:57;1.58;;;1.38;;
50757;SDS011;36732;47.980;11.652;2023-05-07T09:21:24;2.55;;;1.85;;
50757;SDS011;36732;47.980;11.652;2023-05-07T09:23:53;2.22;;;1.42;;
50757;SDS011;36732;47.980;11.652;2023-05-07T09:26:21;2.50;;;1.50;;
50757;SDS011;36732;47.980;11.652;2023-05-07T09:28:48;2.90;;;1.90;;
50757;SDS011;36732;47.980;11.652;2023-05-07T09:31:13;1.95;;;1.75;;
50757;SDS011;36732;47.980;11.652;2023-05-07T09:33:39;2.03;;;1.55;;
50757;SDS011;36732;47.980;11.652;2023-05-07T09:36:06;1.83;;;1.40;;
50757;SDS011;36732;47.980;11.652;2023-05-07T09:38:34;1.67;;;1.58;;
50757;SDS011;36732;47.980;11.652;2023-05-07T09:41:04;3.22;;;1.70;;
50757;SDS011;36732;47.980;11.652;2023-05-07T09:43:36;4.28;;;1.75;;
50757;SDS011;36732;47.980;11.652;2023-05-07T09:46:15;1.98;;;1.55;;
50757;SDS011;36732;47.980;11.652;2023-05-07T09:48:43;1.88;;;1.67;;
50757;SDS011;36732;47.980;11.652;2023-05-07T09:51:22;2.00;;;1.50;;
50757;SDS011;36732;47.980;11.652;2023-05-07T09:53:54;4.13;;;1.13;;
50757;SDS011;36732;47.980;11.652;2023-05-07T09:56:29;2.30;;;1.50;;
50757;SDS011;36732;47.980;11.652;2023-05-07T09:58:56;2.13;;;1.92;;
50757;SDS011;36732;47.980;11.652;2023-05-07T10:01:25;2.40;;;2.05;;
50757;SDS011;36732;47.980;11.652;2023-05-07T10:03:52;2.03;;;1.60;;
50757;SDS011;36732;47.980;11.652;2023-05-07T10:06:19;1.92;;;1.50;;
50757;SDS011;36732;47.980;11.652;2023-05-07T10:08:45;2.72;;;1.50;;
50757;SDS011;36732;47.980;11.652;2023-05-07T10:11:13;2.15;;;1.60;;
50757;SDS011;36732;47.980;11.652;2023-05-07T10:13:41;1.92;;;1.48;;
50757;SDS011;36732;47.980;11.652;2023-05-07T10:16:08;3.80;;;1.50;;
50757;SDS011;36732;47.980;11.652;2023-05-07T10:18:33;1.70;;;1.60;;
50757;SDS011;36732;47.980;11.652;2023-05-07T10:21:04;1.55;;;1.35;;
50757;SDS011;36732;47.980;11.652;2023-05-07T10:23:39;2.15;;;1.33;;
50757;SDS011;36732;47.980;11.652;2023-05-07T10:26:06;2.50;;;1.92;;
50757;SDS011;36732;47.980;11.652;2023-05-07T10:28:36;2.20;;;1.80;;
50757;SDS011;36732;47.980;11.652;2023-05-07T10:34:12;1.98;;;1.50;;
50757;SDS011;36732;47.980;11.652;2023-05-07T10:36:45;3.92;;;1.60;;
50757;SDS011;36732;47.980;11.652;2023-05-07T10:39:11;1.75;;;1.30;;
50757;SDS011;36732;47.980;11.652;2023-05-07T10:41:38;2.42;;;1.42;;
50757;SDS011;36732;47.980;11.652;2023-05-07T10:44:04;2.05;;;1.40;;
50757;SDS011;36732;47.980;11.652;2023-05-07T10:46:30;1.98;;;1.30;;
50757;SDS011;36732;47.980;11.652;2023-05-07T10:51:26;1.23;;;1.13;;
50757;SDS011;36732;47.980;11.652;2023-05-07T10:56:37;2.10;;;1.63;;
50757;SDS011;36732;47.980;11.652;2023-05-07T11:01:58;2.78;;;1.35;;
50757;SDS011;36732;47.980;11.652;2023-05-07T11:04:28;2.85;;;1.50;;
50757;SDS011;36732;47.980;11.652;2023-05-07T11:10:04;1.80;;;1.30;;
50757;SDS011;36732;47.980;11.652;2023-05-07T11:15:07;1.90;;;1.60;;
50757;SDS011;36732;47.980;11.652;2023-05-07T11:17:53;2.88;;;1.40;;
50757;SDS011;36732;47.980;11.652;2023-05-07T11:20:43;2.55;;;1.50;;
50757;SDS011;36732;47.980;11.652;2023-05-07T11:26:08;2.78;;;1.63;;
50757;SDS011;36732;47.980;11.652;2023-05-07T11:28:40;1.90;;;1.30;;
50757;SDS011;36732;47.980;11.652;2023-05-07T11:31:07;2.03;;;1.40;;
50757;SDS011;36732;47.980;11.652;2023-05-07T11:33:34;2.75;;;1.30;;
50757;SDS011;36732;47.980;11.652;2023-05-07T11:36:02;1.60;;;1.20;;
50757;SDS011;36732;47.980;11.652;2023-05-07T11:38:30;2.50;;;1.35;;
50757;SDS011;36732;47.980;11.652;2023-05-07T11:40:59;2.10;;;1.50;;
50757;SDS011;36732;47.980;11.652;2023-05-07T11:43:26;2.05;;;1.55;;
50757;SDS011;36732;47.980;11.652;2023-05-07T11:45:52;2.33;;;1.50;;
50757;SDS011;36732;47.980;11.652;2023-05-07T11:48:19;2.00;;;1.20;;
50757;SDS011;36732;47.980;11.652;2023-05-07T11:50:54;1.35;;;1.25;;
50757;SDS011;36732;47.980;11.652;2023-05-07T11:53:37;3.08;;;1.27;;
50757;SDS011;36732;47.980;11.652;2023-05-07T11:56:08;3.20;;;1.35;;
50757;SDS011;36732;47.980;11.652;2023-05-07T11:58:36;1.70;;;1.20;;
50757;SDS011;36732;47.980;11.652;2023-05-07T12:01:02;5.53;;;1.48;;
50757;SDS011;36732;47.980;11.652;2023-05-07T12:03:28;1.85;;;1.35;;
50757;SDS011;36732;47.980;11.652;2023-05-07T12:05:54;1.80;;;1.40;;
50757;SDS011;36732;47.980;11.652;2023-05-07T12:08:20;2.53;;;1.27;;
50757;SDS011;36732;47.980;11.652;2023-05-07T12:10:48;3.75;;;1.60;;
50757;SDS011;36732;47.980;11.652;2023-05-07T12:15:41;1.08;;;0.98;;
50757;SDS011;36732;47.980;11.652;2023-05-07T12:18:08;1.30;;;1.20;;
50757;SDS011;36732;47.980;11.652;2023-05-07T12:20:35;2.28;;;0.98;;
50757;SDS011;36732;47.980;11.652;2023-05-07T12:23:02;1.40;;;1.25;;
50757;SDS011;36732;47.980;11.652;2023-05-07T12:25:31;2.55;;;1.00;;
50757;SDS011;36732;47.980;11.652;2023-05-07T12:28:00;1.20;;;1.10;;
50757;SDS011;36732;47.980;11.652;2023-05-07T12:30:27;1.48;;;1.30;;
50757;SDS011;36732;47.980;11.652;2023-05-07T12:32:53;1.70;;;1.40;;
50757;SDS011;36732;47.980;11.652;2023-05-07T12:35:27;2.35;;;1.20;;
50757;SDS011;36732;47.980;11.652;2023-05-07T12:37:58;3.28;;;1.50;;
50757;SDS011;36732;47.980;11.652;2023-05-07T12:40:33;1.45;;;1.35;;
50757;SDS011;36732;47.980;11.652;2023-05-07T12:43:04;8.15;;;1.65;;
50757;SDS011;36732;47.980;11.652;2023-05-07T12:45:29;1.33;;;1.20;;
50757;SDS011;36732;47.980;11.652;2023-05-07T12:47:55;1.25;;;0.90;;
50757;SDS011;36732;47.980;11.652;2023-05-07T12:50:22;2.53;;;1.23;;
50757;SDS011;36732;47.980;11.652;2023-05-07T12:52:48;1.42;;;1.20;;
50757;SDS011;36732;47.980;11.652;2023-05-07T12:55:14;2.47;;;1.60;;
50757;SDS011;36732;47.980;11.652;2023-05-07T12:57:41;2.53;;;1.33;;
50757;SDS011;36732;47.980;11.652;2023-05-07T13:00:10;1.13;;;0.98;;
50757;SDS011;36732;47.980;11.652;2023-05-07T13:02:37;1.30;;;1.20;;
50757;SDS011;36732;47.980;11.652;2023-05-07T13:05:04;1.88;;;1.40;;
50757;SDS011;36732;47.980;11.652;2023-05-07T13:07:31;2.95;;;1.17;;
50757;SDS011;36732;47.980;11.652;2023-05-07T13:09:56;4.00;;;1.30;;
50757;SDS011;36732;47.980;11.652;2023-05-07T13:12:22;2.45;;;1.50;;
50757;SDS011;36732;47.980;11.652;2023-05-07T13:14:48;4.22;;;1.20;;
50757;SDS011;36732;47.980;11.652;2023-05-07T13:17:13;2.50;;;1.38;;
50757;SDS011;36732;47.980;11.652;2023-05-07T13:19:39;2.20;;;1.50;;
50757;SDS011;36732;47.980;11.652;2023-05-07T13:22:05;2.78;;;1.70;;
50757;SDS011;36732;47.980;11.652;2023-05-07T13:24:30;2.60;;;1.70;;
50757;SDS011;36732;47.980;11.652;2023-05-07T13:26:56;4.68;;;1.80;;
50757;SDS011;36732;47.980;11.652;2023-05-07T13:29:22;4.03;;;1.50;;
50757;SDS011;36732;47.980;11.652;2023-05-07T13:31:54;1.93;;;1.43;;
50757;SDS011;36732;47.980;11.652;2023-05-07T13:34:24;1.45;;;1.35;;
50757;SDS011;36732;47.980;11.652;2023-05-07T13:36:49;3.85;;;1.60;;
50757;SDS011;36732;47.980;11.652;2023-05-07T13:39:15;7.88;;;2.42;;
50757;SDS011;36732;47.980;11.652;2023-05-07T13:41:41;2.55;;;1.85;;
50757;SDS011;36732;47.980;11.652;2023-05-07T13:44:07;3.05;;;1.60;;
50757;SDS011;36732;47.980;11.652;2023-05-07T13:46:33;1.95;;;1.35;;
50757;SDS011;36732;47.980;11.652;2023-05-07T13:48:58;1.85;;;1.65;;
50757;SDS011;36732;47.980;11.652;2023-05-07T13:51:24;2.17;;;1.50;;
50757;SDS011;36732;47.980;11.652;2023-05-07T13:53:50;1.55;;;1.45;;
50757;SDS011;36732;47.980;11.652;2023-05-07T13:56:17;2.15;;;1.67;;
50757;SDS011;36732;47.980;11.652;2023-05-07T13:58:43;1.90;;;1.58;;
50757;SDS011;36732;47.980;11.652;2023-05-07T14:01:08;1.90;;;1.50;;
50757;SDS011;36732;47.980;11.652;2023-05-07T14:03:34;2.08;;;1.65;;
50757;SDS011;36732;47.980;11.652;2023-05-07T14:06:02;2.05;;;1.38;;
50757;SDS011;36732;47.980;11.652;2023-05-07T14:08:28;1.48;;;1.38;;
50757;SDS011;36732;47.980;11.652;2023-05-07T14:10:54;2.00;;;1.30;;
50757;SDS011;36732;47.980;11.652;2023-05-07T14:13:20;2.05;;;1.38;;
50757;SDS011;36732;47.980;11.652;2023-05-07T14:15:46;2.17;;;1.90;;
50757;SDS011;36732;47.980;11.652;2023-05-07T14:18:13;3.38;;;1.55;;
50757;SDS011;36732;47.980;11.652;2023-05-07T14:20:40;1.38;;;1.27;;
50757;SDS011;36732;47.980;11.652;2023-05-07T14:23:05;2.03;;;1.52;;
50757;SDS011;36732;47.980;11.652;2023-05-07T14:25:31;2.28;;;1.77;;
50757;SDS011;36732;47.980;11.652;2023-05-07T14:27:57;3.30;;;2.10;;
50757;SDS011;36732;47.980;11.652;2023-05-07T14:30:23;1.77;;;1.58;;
50757;SDS011;36732;47.980;11.652;2023-05-07T14:32:49;1.45;;;1.35;;
50757;SDS011;36732;47.980;11.652;2023-05-07T14:35:15;5.55;;;1.60;;
50757;SDS011;36732;47.980;11.652;2023-05-07T14:37:42;1.77;;;1.67;;
50757;SDS011;36732;47.980;11.652;2023-05-07T14:40:08;4.88;;;1.55;;
50757;SDS011;36732;47.980;11.652;2023-05-07T14:42:34;3.22;;;1.50;;
50757;SDS011;36732;47.980;11.652;2023-05-07T14:45:00;1.95;;;1.60;;
50757;SDS011;36732;47.980;11.652;2023-05-07T14:47:27;1.90;;;1.70;;
50757;SDS011;36732;47.980;11.652;2023-05-07T14:49:52;2.65;;;1.55;;
50757;SDS011;36732;47.980;11.652;2023-05-07T14:52:19;2.95;;;1.70;;
50757;SDS011;36732;47.980;11.652;2023-05-07T14:54:45;4.10;;;1.70;;